createdAt,value
2023-04-25T00:00:11.196Z,6.81
2023-04-25T00:00:43.867Z,6.81
2023-04-25T00:01:16.392Z,6.81
2023-04-25T00:01:48.995Z,6.80
2023-04-25T00:02:21.564Z,6.80
2023-04-25T00:02:54.212Z,6.77
2023-04-25T00:03:26.707Z,6.80
2023-04-25T00:03:59.331Z,6.79
2023-04-25T00:04:31.895Z,6.79
2023-04-25T00:05:04.343Z,6.80
2023-04-25T00:05:36.698Z,6.79
2023-04-25T00:06:09.176Z,6.80
2023-04-25T00:06:41.713Z,6.80
2023-04-25T00:07:14.244Z,6.80
2023-04-25T00:07:46.762Z,6.81
2023-04-25T00:08:19.237Z,6.81
2023-04-25T00:08:51.901Z,6.81
2023-04-25T00:09:24.315Z,6.80
2023-04-25T00:09:56.891Z,6.80
2023-04-25T00:10:29.462Z,6.81
2023-04-25T00:11:02.016Z,6.83
2023-04-25T00:11:34.565Z,6.81
2023-04-25T00:12:07.102Z,6.84
2023-04-25T00:12:39.646Z,6.83
2023-04-25T00:13:12.175Z,6.83
2023-04-25T00:13:44.700Z,6.83
2023-04-25T00:14:17.255Z,6.84
2023-04-25T00:14:49.908Z,6.81
2023-04-25T00:15:22.412Z,6.84
2023-04-25T00:15:55.637Z,6.83
2023-04-25T00:16:28.175Z,6.83
2023-04-25T00:17:00.661Z,6.84
2023-04-25T00:17:33.253Z,6.84
2023-04-25T00:18:05.682Z,6.83
2023-04-25T00:18:38.159Z,6.86
2023-04-25T00:19:10.659Z,6.83
2023-04-25T00:19:43.206Z,6.83
2023-04-25T00:20:15.727Z,6.83
2023-04-25T00:20:48.296Z,6.84
2023-04-25T00:21:20.801Z,6.83
2023-04-25T00:21:53.343Z,6.81
2023-04-25T00:22:25.917Z,6.83
2023-04-25T00:22:58.467Z,6.83
2023-04-25T00:23:30.962Z,6.83
2023-04-25T00:24:03.485Z,6.86
2023-04-25T00:24:36.022Z,6.86
2023-04-25T00:25:08.550Z,6.86
2023-04-25T00:25:41.126Z,6.84
2023-04-25T00:26:13.669Z,6.86
2023-04-25T00:26:46.250Z,6.83
2023-04-25T00:27:18.808Z,6.84
2023-04-25T00:27:52.117Z,6.86
2023-04-25T00:28:24.713Z,6.86
2023-04-25T00:28:57.212Z,6.87
2023-04-25T00:29:29.759Z,6.87
2023-04-25T00:30:02.274Z,6.87
2023-04-25T00:30:34.861Z,6.87
2023-04-25T00:31:07.420Z,6.86
2023-04-25T00:31:39.971Z,6.87
2023-04-25T00:32:12.395Z,6.87
2023-04-25T00:32:44.987Z,6.89
2023-04-25T00:33:17.477Z,6.87
2023-04-25T00:33:50.208Z,6.89
2023-04-25T00:34:22.574Z,6.87
2023-04-25T00:34:55.101Z,6.87
2023-04-25T00:35:27.640Z,6.87
2023-04-25T00:36:00.156Z,6.86
2023-04-25T00:36:32.673Z,6.86
2023-04-25T00:37:05.233Z,6.86
2023-04-25T00:37:37.833Z,6.86
2023-04-25T00:38:10.373Z,6.86
2023-04-25T00:38:42.889Z,6.87
2023-04-25T00:39:15.385Z,6.86
2023-04-25T00:39:47.994Z,6.86
2023-04-25T00:40:20.488Z,6.86
2023-04-25T00:40:52.978Z,6.86
2023-04-25T00:41:25.556Z,6.87
2023-04-25T00:41:58.075Z,6.87
2023-04-25T00:42:30.690Z,6.89
2023-04-25T00:43:03.204Z,6.89
2023-04-25T00:43:35.718Z,6.90
2023-04-25T00:44:08.252Z,6.87
2023-04-25T00:44:40.819Z,6.89
2023-04-25T00:45:13.365Z,6.87
2023-04-25T00:45:45.885Z,6.87
2023-04-25T00:46:18.504Z,6.87
2023-04-25T00:46:50.985Z,6.89
2023-04-25T00:47:23.554Z,6.89
2023-04-25T00:47:56.030Z,6.89
2023-04-25T00:48:28.517Z,6.89
2023-04-25T00:49:01.019Z,6.90
2023-04-25T00:49:33.603Z,6.89
2023-04-25T00:50:06.124Z,6.90
2023-04-25T00:50:38.678Z,6.89
2023-04-25T00:51:11.199Z,6.89
2023-04-25T00:51:43.729Z,6.89
2023-04-25T00:52:16.274Z,6.89
2023-04-25T00:52:48.774Z,6.89
2023-04-25T00:53:21.326Z,6.89
2023-04-25T00:53:53.994Z,6.89
2023-04-25T00:54:26.345Z,6.89
2023-04-25T00:54:58.861Z,6.86
2023-04-25T00:55:31.362Z,6.89
2023-04-25T00:56:03.926Z,6.89
2023-04-25T00:56:36.466Z,6.89
2023-04-25T00:57:09.015Z,6.89
2023-04-25T00:57:41.554Z,6.89
2023-04-25T00:58:14.096Z,6.90
2023-04-25T00:58:46.656Z,6.89
2023-04-25T00:59:19.124Z,6.89
2023-04-25T00:59:51.684Z,6.89
2023-04-25T01:00:24.277Z,6.87
2023-04-25T01:00:56.826Z,6.90
2023-04-25T01:01:29.423Z,6.87
2023-04-25T01:02:01.929Z,6.89
2023-04-25T01:02:34.518Z,6.89
2023-04-25T01:03:07.005Z,6.89
2023-04-25T01:03:39.507Z,6.87
2023-04-25T01:04:12.018Z,6.89
2023-04-25T01:04:44.448Z,6.86
2023-04-25T01:05:16.984Z,6.87
2023-04-25T01:05:49.549Z,6.87
2023-04-25T01:06:22.061Z,6.87
2023-04-25T01:06:54.619Z,6.86
2023-04-25T01:07:27.167Z,6.84
2023-04-25T01:07:59.664Z,6.84
2023-04-25T01:08:32.189Z,6.84
2023-04-25T01:09:04.712Z,6.86
2023-04-25T01:09:37.220Z,6.87
2023-04-25T01:10:09.770Z,6.84
2023-04-25T01:10:42.276Z,6.86
2023-04-25T01:11:14.772Z,6.84
2023-04-25T01:11:47.335Z,6.84
2023-04-25T01:12:19.868Z,6.84
2023-04-25T01:12:52.372Z,6.86
2023-04-25T01:13:24.902Z,6.84
2023-04-25T01:13:57.379Z,6.86
2023-04-25T01:14:29.905Z,6.84
2023-04-25T01:15:02.496Z,6.87
2023-04-25T01:15:34.988Z,6.86
2023-04-25T01:16:07.613Z,6.87
2023-04-25T01:16:40.099Z,6.89
2023-04-25T01:17:12.577Z,6.87
2023-04-25T01:17:45.184Z,6.87
2023-04-25T01:18:17.654Z,6.89
2023-04-25T01:18:50.223Z,6.87
2023-04-25T01:19:22.763Z,6.87
2023-04-25T01:19:55.305Z,6.87
2023-04-25T01:20:27.840Z,6.90
2023-04-25T01:21:00.358Z,6.90
2023-04-25T01:21:32.921Z,6.90
2023-04-25T01:22:05.449Z,6.89
2023-04-25T01:22:37.978Z,6.90
2023-04-25T01:23:10.498Z,6.90
2023-04-25T01:23:43.041Z,6.89
2023-04-25T01:24:15.559Z,6.90
2023-04-25T01:24:48.147Z,6.91
2023-04-25T01:25:20.678Z,6.91
2023-04-25T01:25:53.214Z,6.90
2023-04-25T01:26:26.454Z,6.90
2023-04-25T01:26:58.943Z,6.94
2023-04-25T01:27:31.475Z,6.91
2023-04-25T01:28:03.962Z,6.91
2023-04-25T01:28:36.476Z,6.91
2023-04-25T01:29:08.990Z,6.94
2023-04-25T01:29:41.529Z,6.91
2023-04-25T01:30:14.021Z,6.91
2023-04-25T01:30:46.565Z,6.94
2023-04-25T01:31:19.067Z,6.90
2023-04-25T01:31:51.703Z,6.89
2023-04-25T01:32:24.191Z,6.90
2023-04-25T01:32:56.708Z,6.90
2023-04-25T01:33:29.202Z,6.91
2023-04-25T01:34:01.755Z,6.90
2023-04-25T01:34:34.285Z,6.90
2023-04-25T01:35:06.824Z,6.89
2023-04-25T01:35:39.398Z,6.90
2023-04-25T01:36:11.932Z,6.90
2023-04-25T01:36:44.497Z,6.90
2023-04-25T01:37:17.030Z,6.89
2023-04-25T01:37:49.592Z,6.89
2023-04-25T01:38:22.136Z,6.90
2023-04-25T01:38:54.644Z,6.91
2023-04-25T01:39:27.170Z,6.90
2023-04-25T01:39:59.668Z,6.90
2023-04-25T01:40:32.246Z,6.90
2023-04-25T01:41:04.851Z,6.90
2023-04-25T01:41:37.392Z,6.91
2023-04-25T01:42:09.921Z,6.89
2023-04-25T01:42:42.439Z,6.89
2023-04-25T01:43:15.005Z,6.89
2023-04-25T01:43:47.551Z,6.87
2023-04-25T01:44:20.627Z,6.87
2023-04-25T01:44:53.169Z,6.89
2023-04-25T01:45:25.706Z,6.90
2023-04-25T01:45:58.309Z,6.89
2023-04-25T01:46:30.914Z,6.90
2023-04-25T01:47:03.357Z,6.87
2023-04-25T01:47:35.924Z,6.91
2023-04-25T01:48:08.452Z,6.87
2023-04-25T01:48:40.956Z,6.87
2023-04-25T01:49:13.458Z,6.87
2023-04-25T01:49:46.017Z,6.87
2023-04-25T01:50:18.479Z,6.87
2023-04-25T01:50:51.017Z,6.89
2023-04-25T01:51:23.521Z,6.87
2023-04-25T01:51:56.105Z,6.89
2023-04-25T01:52:28.649Z,6.89
2023-04-25T01:53:01.187Z,6.89
2023-04-25T01:53:33.716Z,6.89
2023-04-25T01:54:06.201Z,6.89
2023-04-25T01:54:38.707Z,6.87
2023-04-25T01:55:11.271Z,6.89
2023-04-25T01:55:43.908Z,6.90
2023-04-25T01:56:16.453Z,6.91
2023-04-25T01:56:49.014Z,6.91
2023-04-25T01:57:21.535Z,6.90
2023-04-25T01:57:54.057Z,6.90
2023-04-25T01:58:26.617Z,6.91
2023-04-25T01:58:59.142Z,6.90
2023-04-25T01:59:31.668Z,6.91
2023-04-25T02:00:04.215Z,6.90
2023-04-25T02:00:36.734Z,6.91
2023-04-25T02:01:09.251Z,6.91
2023-04-25T02:01:41.822Z,6.94
2023-04-25T02:02:14.304Z,6.94
2023-04-25T02:02:46.960Z,6.94
2023-04-25T02:03:19.477Z,6.94
2023-04-25T02:03:52.358Z,6.95
2023-04-25T02:04:24.568Z,6.95
2023-04-25T02:04:56.937Z,6.94
2023-04-25T02:05:29.496Z,6.91
2023-04-25T02:06:02.033Z,6.90
2023-04-25T02:06:34.623Z,6.87
2023-04-25T02:07:07.133Z,6.86
2023-04-25T02:07:39.672Z,6.84
2023-04-25T02:08:12.182Z,6.84
2023-04-25T02:08:44.690Z,6.84
2023-04-25T02:09:17.180Z,6.83
2023-04-25T02:09:49.727Z,6.83
2023-04-25T02:10:22.282Z,6.84
2023-04-25T02:10:54.847Z,6.81
2023-04-25T02:11:27.382Z,6.80
2023-04-25T02:11:59.922Z,6.79
2023-04-25T02:12:32.442Z,6.80
2023-04-25T02:13:04.948Z,6.79
2023-04-25T02:13:37.536Z,6.80
2023-04-25T02:14:10.058Z,6.80
2023-04-25T02:14:42.596Z,6.81
2023-04-25T02:15:15.072Z,6.81
2023-04-25T02:15:47.718Z,6.84
2023-04-25T02:16:20.293Z,6.83
2023-04-25T02:16:52.891Z,6.84
2023-04-25T02:17:25.285Z,6.86
2023-04-25T02:17:57.905Z,6.81
2023-04-25T02:18:30.348Z,6.81
2023-04-25T02:19:02.898Z,6.81
2023-04-25T02:19:35.450Z,6.81
2023-04-25T02:20:07.963Z,6.81
2023-04-25T02:20:40.513Z,6.81
2023-04-25T02:21:13.029Z,6.81
2023-04-25T02:21:45.537Z,6.81
2023-04-25T02:22:18.074Z,6.81
2023-04-25T02:22:50.633Z,6.80
2023-04-25T02:23:23.160Z,6.81
2023-04-25T02:23:55.645Z,6.81
2023-04-25T02:24:28.169Z,6.79
2023-04-25T02:25:00.696Z,6.79
2023-04-25T02:25:33.358Z,6.80
2023-04-25T02:26:05.865Z,6.79
2023-04-25T02:26:38.397Z,6.80
2023-04-25T02:27:10.946Z,6.79
2023-04-25T02:27:43.470Z,6.80
2023-04-25T02:28:15.971Z,6.80
2023-04-25T02:28:48.496Z,6.80
2023-04-25T02:29:21.030Z,6.80
2023-04-25T02:29:53.576Z,6.83
2023-04-25T02:30:26.073Z,6.81
2023-04-25T02:30:58.623Z,6.81
2023-04-25T02:31:31.153Z,6.81
2023-04-25T02:32:03.707Z,6.81
2023-04-25T02:32:36.276Z,6.83
2023-04-25T02:33:08.855Z,6.83
2023-04-25T02:33:41.278Z,6.81
2023-04-25T02:34:13.796Z,6.84
2023-04-25T02:34:46.322Z,6.83
2023-04-25T02:35:18.842Z,6.81
2023-04-25T02:35:51.420Z,6.81
2023-04-25T02:36:24.029Z,6.79
2023-04-25T02:36:56.516Z,6.79
2023-04-25T02:37:29.027Z,6.77
2023-04-25T02:38:01.548Z,6.76
2023-04-25T02:38:34.071Z,6.77
2023-04-25T02:39:06.569Z,6.77
2023-04-25T02:39:39.082Z,6.77
2023-04-25T02:40:11.645Z,6.79
2023-04-25T02:40:44.154Z,6.79
2023-04-25T02:41:16.721Z,6.76
2023-04-25T02:41:49.253Z,6.77
2023-04-25T02:42:21.783Z,6.76
2023-04-25T02:42:54.325Z,6.77
2023-04-25T02:43:26.852Z,6.77
2023-04-25T02:43:59.374Z,6.79
2023-04-25T02:44:31.895Z,6.79
2023-04-25T02:45:04.424Z,6.79
2023-04-25T02:45:36.893Z,6.79
2023-04-25T02:46:09.492Z,6.77
2023-04-25T02:46:41.989Z,6.76
2023-04-25T02:47:14.546Z,6.76
2023-04-25T02:47:47.062Z,6.76
2023-04-25T02:48:19.571Z,6.76
2023-04-25T02:48:52.110Z,6.73
2023-04-25T02:49:24.604Z,6.76
2023-04-25T02:49:57.161Z,6.73
2023-04-25T02:50:29.692Z,6.76
2023-04-25T02:51:02.204Z,6.72
2023-04-25T02:51:34.718Z,6.77
2023-04-25T02:52:07.219Z,6.73
2023-04-25T02:52:39.804Z,6.77
2023-04-25T02:53:12.353Z,6.76
2023-04-25T02:53:44.850Z,6.77
2023-04-25T02:54:17.410Z,6.76
2023-04-25T02:54:49.963Z,6.77
2023-04-25T02:55:22.499Z,6.73
2023-04-25T02:55:55.056Z,6.76
2023-04-25T02:56:27.597Z,6.73
2023-04-25T02:57:00.150Z,6.72
2023-04-25T02:57:32.673Z,6.73
2023-04-25T02:58:05.229Z,6.73
2023-04-25T02:58:37.743Z,6.73
2023-04-25T02:59:10.266Z,6.73
2023-04-25T02:59:42.836Z,6.76
2023-04-25T03:00:15.474Z,6.77
2023-04-25T03:00:47.988Z,6.73
2023-04-25T03:01:20.627Z,6.77
2023-04-25T03:01:53.121Z,6.77
2023-04-25T03:02:25.776Z,6.77
2023-04-25T03:02:58.259Z,6.77
2023-04-25T03:03:30.846Z,6.76
2023-04-25T03:04:03.258Z,6.76
2023-04-25T03:04:35.815Z,6.76
2023-04-25T03:05:08.392Z,6.76
2023-04-25T03:05:40.880Z,6.71
2023-04-25T03:06:13.384Z,6.72
2023-04-25T03:06:46.562Z,6.72
2023-04-25T03:07:19.141Z,6.69
2023-04-25T03:07:51.684Z,6.71
2023-04-25T03:08:24.201Z,6.71
2023-04-25T03:08:56.727Z,6.69
2023-04-25T03:09:29.269Z,6.72
2023-04-25T03:10:01.926Z,6.71
2023-04-25T03:10:34.456Z,6.71
2023-04-25T03:11:06.996Z,6.71
2023-04-25T03:11:39.491Z,6.71
2023-04-25T03:12:12.108Z,6.71
2023-04-25T03:12:44.622Z,6.71
2023-04-25T03:13:17.107Z,6.68
2023-04-25T03:13:49.798Z,6.68
2023-04-25T03:14:22.188Z,6.66
2023-04-25T03:14:54.707Z,6.66
2023-04-25T03:15:27.207Z,6.65
2023-04-25T03:15:59.861Z,6.63
2023-04-25T03:16:32.402Z,6.65
2023-04-25T03:17:04.849Z,6.61
2023-04-25T03:17:37.400Z,6.62
2023-04-25T03:18:09.916Z,6.62
2023-04-25T03:18:42.363Z,6.63
2023-04-25T03:19:14.882Z,6.62
2023-04-25T03:19:47.441Z,6.61
2023-04-25T03:20:19.962Z,6.62
2023-04-25T03:20:52.484Z,6.61
2023-04-25T03:21:25.064Z,6.61
2023-04-25T03:21:57.559Z,6.61
2023-04-25T03:22:30.087Z,6.61
2023-04-25T03:23:02.605Z,6.62
2023-04-25T03:23:35.133Z,6.59
2023-04-25T03:24:07.644Z,6.61
2023-04-25T03:24:40.157Z,6.61
2023-04-25T03:25:12.676Z,6.58
2023-04-25T03:25:45.203Z,6.56
2023-04-25T03:26:17.734Z,6.56
2023-04-25T03:26:50.268Z,6.56
2023-04-25T03:27:22.775Z,6.58
2023-04-25T03:27:55.306Z,6.53
2023-04-25T03:28:27.834Z,6.56
2023-04-25T03:29:00.434Z,6.56
2023-04-25T03:29:32.989Z,6.54
2023-04-25T03:30:05.525Z,6.53
2023-04-25T03:30:38.045Z,6.54
2023-04-25T03:31:10.683Z,6.53
2023-04-25T03:31:43.247Z,6.53
2023-04-25T03:32:15.829Z,6.53
2023-04-25T03:32:48.298Z,6.53
2023-04-25T03:33:20.801Z,6.51
2023-04-25T03:33:53.563Z,6.51
2023-04-25T03:34:25.910Z,6.48
2023-04-25T03:34:58.437Z,6.50
2023-04-25T03:35:31.051Z,6.51
2023-04-25T03:36:03.580Z,6.51
2023-04-25T03:36:36.121Z,6.51
2023-04-25T03:37:08.654Z,6.50
2023-04-25T03:37:41.170Z,6.48
2023-04-25T03:38:13.674Z,6.48
2023-04-25T03:38:46.254Z,6.50
2023-04-25T03:39:18.773Z,6.50
2023-04-25T03:39:51.308Z,6.48
2023-04-25T03:40:23.833Z,6.50
2023-04-25T03:40:56.345Z,6.47
2023-04-25T03:41:28.875Z,6.48
2023-04-25T03:42:01.410Z,6.48
2023-04-25T03:42:33.913Z,6.48
2023-04-25T03:43:06.507Z,6.48
2023-04-25T03:43:39.038Z,6.48
2023-04-25T03:44:11.577Z,6.48
2023-04-25T03:44:44.058Z,6.50
2023-04-25T03:45:16.652Z,6.47
2023-04-25T03:45:49.231Z,6.47
2023-04-25T03:46:21.836Z,6.47
2023-04-25T03:46:54.239Z,6.47
2023-04-25T03:47:26.813Z,6.47
2023-04-25T03:47:59.360Z,6.47
2023-04-25T03:48:31.788Z,6.46
2023-04-25T03:49:04.281Z,6.47
2023-04-25T03:49:36.800Z,6.46
2023-04-25T03:50:09.318Z,6.47
2023-04-25T03:50:41.860Z,6.44
2023-04-25T03:51:14.362Z,6.46
2023-04-25T03:51:46.899Z,6.43
2023-04-25T03:52:19.480Z,6.43
2023-04-25T03:52:52.005Z,6.43
2023-04-25T03:53:24.564Z,6.43
2023-04-25T03:53:57.082Z,6.41
2023-04-25T03:54:29.647Z,6.43
2023-04-25T03:55:02.179Z,6.40
2023-04-25T03:55:34.782Z,6.43
2023-04-25T03:56:07.342Z,6.43
2023-04-25T03:56:39.844Z,6.41
2023-04-25T03:57:12.411Z,6.41
2023-04-25T03:57:44.917Z,6.43
2023-04-25T03:58:17.523Z,6.41
2023-04-25T03:58:50.068Z,6.43
2023-04-25T03:59:22.584Z,6.41
2023-04-25T03:59:55.139Z,6.43
2023-04-25T04:00:27.689Z,6.40
2023-04-25T04:01:00.221Z,6.41
2023-04-25T04:01:32.823Z,6.43
2023-04-25T04:02:05.387Z,6.41
2023-04-25T04:02:38.048Z,6.40
2023-04-25T04:03:10.512Z,6.41
2023-04-25T04:03:43.157Z,6.41
2023-04-25T04:04:15.778Z,6.43
2023-04-25T04:04:48.370Z,6.40
2023-04-25T04:05:20.765Z,6.40
2023-04-25T04:05:53.272Z,6.40
2023-04-25T04:06:25.681Z,6.40
2023-04-25T04:06:58.269Z,6.41
2023-04-25T04:07:30.829Z,6.43
2023-04-25T04:08:03.421Z,6.44
2023-04-25T04:08:35.950Z,6.41
2023-04-25T04:09:08.519Z,6.43
2023-04-25T04:09:41.116Z,6.41
2023-04-25T04:10:13.654Z,6.41
2023-04-25T04:10:46.158Z,6.40
2023-04-25T04:11:18.705Z,6.41
2023-04-25T04:11:51.215Z,6.40
2023-04-25T04:12:23.748Z,6.36
2023-04-25T04:12:56.245Z,6.38
2023-04-25T04:13:28.799Z,6.36
2023-04-25T04:14:01.355Z,6.36
2023-04-25T04:14:33.860Z,6.36
2023-04-25T04:15:06.436Z,6.36
2023-04-25T04:15:46.049Z,6.36
2023-04-25T04:16:18.544Z,6.38
2023-04-25T04:16:51.016Z,6.35
2023-04-25T04:17:23.520Z,6.38
2023-04-25T04:17:56.042Z,6.36
2023-04-25T04:18:28.467Z,6.36
2023-04-25T04:19:00.976Z,6.38
2023-04-25T04:19:33.465Z,6.36
2023-04-25T04:20:06.006Z,6.36
2023-04-25T04:20:38.513Z,6.38
2023-04-25T04:21:11.053Z,6.40
2023-04-25T04:21:43.570Z,6.38
2023-04-25T04:22:16.082Z,6.38
2023-04-25T04:22:48.563Z,6.40
2023-04-25T04:23:21.065Z,6.38
2023-04-25T04:23:53.567Z,6.38
2023-04-25T04:24:26.067Z,6.36
2023-04-25T04:24:58.583Z,6.38
2023-04-25T04:25:31.077Z,6.36
2023-04-25T04:26:03.599Z,6.36
2023-04-25T04:26:36.109Z,6.36
2023-04-25T04:27:08.604Z,6.38
2023-04-25T04:27:41.108Z,6.36
2023-04-25T04:28:13.606Z,6.35
2023-04-25T04:28:46.141Z,6.35
2023-04-25T04:29:18.629Z,6.36
2023-04-25T04:29:51.140Z,6.36
2023-04-25T04:30:23.655Z,6.36
2023-04-25T04:30:56.230Z,6.33
2023-04-25T04:31:28.718Z,6.35
2023-04-25T04:32:01.219Z,6.36
2023-04-25T04:32:33.740Z,6.36
2023-04-25T04:33:06.292Z,6.33
2023-04-25T04:33:38.732Z,6.35
2023-04-25T04:34:11.292Z,6.35
2023-04-25T04:34:43.802Z,6.36
2023-04-25T04:35:16.272Z,6.35
2023-04-25T04:35:48.771Z,6.36
2023-04-25T04:36:21.343Z,6.36
2023-04-25T04:36:53.843Z,6.38
2023-04-25T04:37:26.324Z,6.36
2023-04-25T04:37:58.844Z,6.36
2023-04-25T04:38:31.367Z,6.35
2023-04-25T04:39:03.890Z,6.38
2023-04-25T04:39:36.396Z,6.40
2023-04-25T04:40:08.890Z,6.38
2023-04-25T04:40:41.421Z,6.38
2023-04-25T04:41:13.923Z,6.38
2023-04-25T04:41:46.422Z,6.38
2023-04-25T04:42:18.931Z,6.40
2023-04-25T04:42:51.462Z,6.38
2023-04-25T04:43:23.989Z,6.40
2023-04-25T04:43:56.467Z,6.41
2023-04-25T04:44:28.959Z,6.40
2023-04-25T04:45:01.479Z,6.40
2023-04-25T04:45:33.976Z,6.41
2023-04-25T04:46:06.493Z,6.38
2023-04-25T04:46:39.113Z,6.41
2023-04-25T04:47:11.490Z,6.41
2023-04-25T04:47:44.066Z,6.43
2023-04-25T04:48:16.501Z,6.40
2023-04-25T04:48:49.005Z,6.41
2023-04-25T04:49:21.479Z,6.41
2023-04-25T04:49:54.006Z,6.41
2023-04-25T04:50:26.483Z,6.43
2023-04-25T04:50:58.966Z,6.43
2023-04-25T04:51:31.452Z,6.41
2023-04-25T04:52:03.925Z,6.44
2023-04-25T04:52:36.429Z,6.44
2023-04-25T04:53:08.958Z,6.43
2023-04-25T04:53:41.455Z,6.46
2023-04-25T04:54:13.945Z,6.46
2023-04-25T04:54:46.417Z,6.46
2023-04-25T04:55:18.899Z,6.46
2023-04-25T04:55:51.401Z,6.47
2023-04-25T04:56:23.912Z,6.48
2023-04-25T04:56:56.499Z,6.47
2023-04-25T04:57:29.024Z,6.50
2023-04-25T04:58:01.507Z,6.50
2023-04-25T04:58:34.019Z,6.50
2023-04-25T04:59:06.493Z,6.51
2023-04-25T04:59:38.978Z,6.51
2023-04-25T05:00:11.459Z,6.50
2023-04-25T05:00:44.016Z,6.48
2023-04-25T05:01:16.478Z,6.50
2023-04-25T05:01:48.936Z,6.51
2023-04-25T05:02:21.471Z,6.53
2023-04-25T05:02:54.019Z,6.51
2023-04-25T05:03:26.497Z,6.54
2023-04-25T05:03:59.233Z,6.53
2023-04-25T05:04:31.525Z,6.51
2023-04-25T05:05:03.877Z,6.53
2023-04-25T05:05:36.374Z,6.53
2023-04-25T05:06:08.867Z,6.54
2023-04-25T05:06:41.351Z,6.54
2023-04-25T05:07:13.826Z,6.54
2023-04-25T05:07:46.301Z,6.54
2023-04-25T05:08:18.810Z,6.56
2023-04-25T05:08:51.282Z,6.56
2023-04-25T05:09:23.780Z,6.58
2023-04-25T05:09:56.293Z,6.54
2023-04-25T05:10:28.775Z,6.56
2023-04-25T05:11:01.245Z,6.56
2023-04-25T05:11:33.769Z,6.58
2023-04-25T05:12:06.380Z,6.59
2023-04-25T05:12:38.858Z,6.61
2023-04-25T05:13:11.358Z,6.59
2023-04-25T05:13:43.907Z,6.59
2023-04-25T05:14:16.432Z,6.58
2023-04-25T05:14:48.949Z,6.61
2023-04-25T05:15:21.422Z,6.62
2023-04-25T05:15:53.934Z,6.63
2023-04-25T05:16:26.456Z,6.62
2023-04-25T05:16:58.943Z,6.62
2023-04-25T05:17:31.427Z,6.65
2023-04-25T05:18:03.986Z,6.63
2023-04-25T05:18:36.397Z,6.65
2023-04-25T05:19:08.893Z,6.69
2023-04-25T05:19:41.372Z,6.71
2023-04-25T05:20:13.874Z,6.72
2023-04-25T05:20:46.373Z,6.76
2023-04-25T05:21:18.852Z,6.76
2023-04-25T05:21:51.354Z,6.79
2023-04-25T05:22:23.849Z,6.80
2023-04-25T05:22:56.347Z,6.81
2023-04-25T05:23:28.944Z,6.83
2023-04-25T05:24:01.298Z,6.84
2023-04-25T05:24:33.825Z,6.86
2023-04-25T05:25:06.302Z,6.86
2023-04-25T05:25:38.827Z,6.90
2023-04-25T05:26:11.308Z,6.94
2023-04-25T05:26:43.797Z,6.95
2023-04-25T05:27:16.281Z,6.99
2023-04-25T05:27:48.810Z,6.99
2023-04-25T05:28:21.281Z,7.02
2023-04-25T05:28:53.809Z,7.04
2023-04-25T05:29:26.312Z,7.05
2023-04-25T05:29:58.790Z,7.05
2023-04-25T05:30:31.296Z,7.07
2023-04-25T05:31:03.801Z,7.07
2023-04-25T05:31:36.312Z,7.05
2023-04-25T05:32:08.853Z,7.09
2023-04-25T05:32:41.275Z,7.13
2023-04-25T05:33:13.960Z,7.16
2023-04-25T05:33:46.281Z,7.13
2023-04-25T05:34:18.790Z,7.15
2023-04-25T05:34:51.319Z,7.13
2023-04-25T05:35:23.778Z,7.15
2023-04-25T05:35:56.263Z,7.16
2023-04-25T05:36:28.765Z,7.19
2023-04-25T05:37:01.259Z,7.19
2023-04-25T05:37:33.799Z,7.22
2023-04-25T05:38:06.225Z,7.23
2023-04-25T05:38:38.721Z,7.26
2023-04-25T05:39:11.227Z,7.27
2023-04-25T05:39:43.719Z,7.32
2023-04-25T05:40:16.235Z,7.29
2023-04-25T05:40:48.692Z,7.31
2023-04-25T05:41:21.190Z,7.29
2023-04-25T05:41:53.660Z,7.34
2023-04-25T05:42:26.189Z,7.32
2023-04-25T05:42:58.717Z,7.32
2023-04-25T05:43:31.220Z,7.32
2023-04-25T05:44:03.771Z,7.32
2023-04-25T05:44:36.272Z,7.34
2023-04-25T05:45:08.770Z,7.32
2023-04-25T05:45:41.313Z,7.38
2023-04-25T05:46:13.771Z,7.38
2023-04-25T05:46:46.238Z,7.40
2023-04-25T05:47:18.754Z,7.44
2023-04-25T05:47:51.368Z,7.44
2023-04-25T05:48:23.732Z,7.45
2023-04-25T05:48:56.282Z,7.42
2023-04-25T05:49:28.756Z,7.44
2023-04-25T05:50:01.260Z,7.45
2023-04-25T05:50:33.762Z,7.47
2023-04-25T05:51:06.252Z,7.47
2023-04-25T05:51:38.762Z,7.49
2023-04-25T05:52:11.236Z,7.49
2023-04-25T05:52:43.726Z,7.53
2023-04-25T05:53:16.241Z,7.55
2023-04-25T05:53:48.935Z,7.60
2023-04-25T05:54:21.219Z,7.62
2023-04-25T05:54:53.741Z,7.63
2023-04-25T05:55:26.267Z,7.60
2023-04-25T05:55:58.769Z,7.62
2023-04-25T05:56:31.278Z,7.63
2023-04-25T05:57:03.749Z,7.66
2023-04-25T05:57:36.276Z,7.66
2023-04-25T05:58:08.827Z,7.71
2023-04-25T05:58:41.397Z,7.71
2023-04-25T05:59:13.943Z,7.71
2023-04-25T05:59:46.484Z,7.71
2023-04-25T06:00:19.015Z,7.71
2023-04-25T06:00:51.537Z,7.71
2023-04-25T06:01:24.073Z,7.78
2023-04-25T06:01:56.613Z,7.78
2023-04-25T06:02:29.201Z,7.75
2023-04-25T06:03:01.772Z,7.78
2023-04-25T06:03:34.297Z,7.81
2023-04-25T06:04:06.776Z,7.82
2023-04-25T06:04:39.469Z,7.84
2023-04-25T06:05:12.014Z,7.89
2023-04-25T06:05:44.297Z,7.93
2023-04-25T06:06:16.739Z,7.92
2023-04-25T06:06:49.322Z,7.94
2023-04-25T06:07:22.050Z,7.97
2023-04-25T06:07:54.640Z,7.97
2023-04-25T06:08:27.153Z,8.02
2023-04-25T06:08:59.703Z,8.03
2023-04-25T06:09:32.378Z,8.08
2023-04-25T06:10:04.873Z,8.14
2023-04-25T06:10:37.360Z,8.18
2023-04-25T06:11:09.849Z,8.21
2023-04-25T06:11:42.401Z,8.25
2023-04-25T06:12:14.839Z,8.30
2023-04-25T06:12:47.343Z,8.29
2023-04-25T06:13:19.861Z,8.29
2023-04-25T06:13:52.582Z,8.26
2023-04-25T06:14:24.852Z,8.26
2023-04-25T06:14:57.332Z,8.26
2023-04-25T06:15:29.825Z,8.28
2023-04-25T06:16:02.383Z,8.29
2023-04-25T06:16:34.931Z,8.32
2023-04-25T06:17:07.367Z,8.30
2023-04-25T06:17:39.838Z,8.35
2023-04-25T06:18:12.307Z,8.37
2023-04-25T06:18:44.803Z,8.42
2023-04-25T06:19:17.273Z,8.44
2023-04-25T06:19:49.759Z,8.48
2023-04-25T06:20:22.259Z,8.51
2023-04-25T06:20:54.767Z,8.53
2023-04-25T06:21:27.263Z,8.54
2023-04-25T06:21:59.755Z,8.57
2023-04-25T06:22:32.237Z,8.55
2023-04-25T06:23:04.738Z,8.53
2023-04-25T06:23:37.259Z,8.51
2023-04-25T06:24:09.747Z,8.51
2023-04-25T06:24:42.235Z,8.50
2023-04-25T06:25:14.717Z,8.48
2023-04-25T06:25:47.212Z,8.45
2023-04-25T06:26:19.715Z,8.45
2023-04-25T06:26:52.219Z,8.39
2023-04-25T06:27:24.707Z,8.26
2023-04-25T06:27:57.225Z,8.21
2023-04-25T06:28:29.702Z,8.21
2023-04-25T06:29:02.205Z,8.20
2023-04-25T06:29:34.731Z,8.22
2023-04-25T06:30:07.237Z,8.26
2023-04-25T06:30:39.740Z,8.30
2023-04-25T06:31:12.271Z,8.35
2023-04-25T06:31:44.834Z,8.35
2023-04-25T06:32:17.192Z,8.37
2023-04-25T06:32:49.738Z,8.39
2023-04-25T06:33:22.186Z,8.40
2023-04-25T06:33:54.698Z,8.42
2023-04-25T06:34:27.244Z,8.42
2023-04-25T06:34:59.695Z,8.44
2023-04-25T06:35:32.216Z,8.39
2023-04-25T06:36:04.681Z,8.40
2023-04-25T06:36:37.170Z,8.42
2023-04-25T06:37:09.653Z,8.48
2023-04-25T06:37:42.140Z,8.54
2023-04-25T06:38:14.632Z,8.60
2023-04-25T06:38:47.163Z,8.63
2023-04-25T06:39:19.626Z,8.69
2023-04-25T06:39:52.096Z,8.73
2023-04-25T06:40:24.576Z,8.78
2023-04-25T06:40:57.072Z,8.86
2023-04-25T06:41:29.562Z,8.96
2023-04-25T06:42:02.034Z,9.06
2023-04-25T06:42:34.533Z,9.18
2023-04-25T06:43:07.005Z,9.23
2023-04-25T06:43:39.489Z,9.23
2023-04-25T06:44:11.981Z,9.23
2023-04-25T06:44:44.479Z,9.23
2023-04-25T06:45:16.990Z,9.24
2023-04-25T06:45:49.439Z,9.25
2023-04-25T06:46:21.965Z,9.25
2023-04-25T06:46:54.438Z,9.28
2023-04-25T06:47:26.926Z,9.32
2023-04-25T06:47:59.422Z,9.43
2023-04-25T06:48:31.889Z,9.56
2023-04-25T06:49:04.390Z,9.68
2023-04-25T06:49:36.903Z,9.89
2023-04-25T06:50:09.387Z,10.01
2023-04-25T06:50:41.897Z,10.14
2023-04-25T06:51:14.376Z,10.24
2023-04-25T06:51:46.886Z,10.44
2023-04-25T06:52:19.413Z,10.74
2023-04-25T06:52:51.914Z,10.84
2023-04-25T06:53:24.397Z,10.92
2023-04-25T06:53:56.927Z,11.14
2023-04-25T06:54:29.405Z,11.56
2023-04-25T06:55:01.908Z,11.68
2023-04-25T06:55:34.412Z,11.87
2023-04-25T06:56:06.925Z,12.37
2023-04-25T06:56:39.409Z,12.64
2023-04-25T06:57:11.975Z,12.74
2023-04-25T06:57:44.449Z,12.69
2023-04-25T06:58:16.928Z,12.64
2023-04-25T06:58:49.731Z,12.56
2023-04-25T06:59:21.978Z,12.41
2023-04-25T06:59:54.468Z,12.24
2023-04-25T07:00:26.990Z,12.23
2023-04-25T07:00:59.474Z,12.38
2023-04-25T07:01:31.981Z,12.49
2023-04-25T07:02:04.459Z,12.67
2023-04-25T07:02:37.164Z,13.27
2023-04-25T07:03:09.576Z,13.38
2023-04-25T07:03:42.131Z,13.14
2023-04-25T07:04:14.804Z,12.95
2023-04-25T07:04:47.244Z,12.69
2023-04-25T07:05:19.553Z,12.51
2023-04-25T07:05:51.971Z,12.34
2023-04-25T07:06:24.460Z,12.21
2023-04-25T07:06:56.980Z,12.05
2023-04-25T07:07:29.458Z,11.90
2023-04-25T07:08:02.057Z,11.67
2023-04-25T07:08:34.566Z,11.50
2023-04-25T07:09:07.058Z,11.32
2023-04-25T07:09:39.569Z,11.20
2023-04-25T07:10:12.093Z,11.01
2023-04-25T07:10:44.557Z,10.92
2023-04-25T07:11:17.078Z,10.86
2023-04-25T07:11:49.585Z,10.88
2023-04-25T07:12:22.105Z,10.91